createdAt,value
2016-08-12T00:00:27.318Z,0
2016-08-12T00:01:27.345Z,0
2016-08-12T00:02:27.366Z,0
2016-08-12T00:03:27.394Z,0
2016-08-12T00:04:28.119Z,0
2016-08-12T00:05:27.460Z,0
2016-08-12T00:06:27.478Z,0
2016-08-12T00:07:27.483Z,0
2016-08-12T00:08:27.519Z,0
2016-08-12T00:09:27.734Z,0
2016-08-12T00:10:27.560Z,0
2016-08-12T00:11:27.584Z,0
2016-08-12T00:12:27.606Z,0
2016-08-12T00:13:27.627Z,0
2016-08-12T00:14:27.649Z,0
2016-08-12T00:15:28.396Z,0
2016-08-12T00:16:27.702Z,0
2016-08-12T00:17:27.722Z,0
2016-08-12T00:18:27.744Z,0
2016-08-12T00:19:27.795Z,0
2016-08-12T00:20:27.802Z,0
2016-08-12T00:21:27.822Z,0
2016-08-12T00:22:27.848Z,0
2016-08-12T00:23:27.866Z,0
2016-08-12T00:24:27.885Z,0
2016-08-12T00:25:28.616Z,0
2016-08-12T00:26:27.940Z,0
2016-08-12T00:27:27.958Z,0
2016-08-12T00:28:27.986Z,0
2016-08-12T00:29:28.003Z,0
2016-08-12T00:30:28.744Z,0
2016-08-12T00:31:28.053Z,0
2016-08-12T00:32:28.787Z,0
2016-08-12T00:33:28.095Z,0
2016-08-12T00:34:28.135Z,0
2016-08-12T00:35:28.853Z,0
2016-08-12T00:36:28.174Z,0
2016-08-12T00:37:28.197Z,0
2016-08-12T00:38:28.223Z,0
2016-08-12T00:39:28.245Z,0
2016-08-12T00:40:28.980Z,0
2016-08-12T00:41:28.293Z,0
2016-08-12T00:42:28.315Z,0
2016-08-12T00:43:28.346Z,0
2016-08-12T00:44:28.391Z,0
2016-08-12T00:45:28.410Z,0
2016-08-12T00:46:28.412Z,0
2016-08-12T00:47:28.436Z,0
2016-08-12T00:48:28.471Z,0
2016-08-12T00:49:29.922Z,0
2016-08-12T00:50:29.231Z,0
2016-08-12T00:51:28.605Z,0
2016-08-12T00:52:28.552Z,0
2016-08-12T00:53:28.580Z,0
2016-08-12T00:54:28.600Z,0
2016-08-12T00:55:28.626Z,0
2016-08-12T00:56:28.651Z,0
2016-08-12T00:57:28.675Z,0
2016-08-12T00:58:30.122Z,0
2016-08-12T00:59:29.428Z,0
2016-08-12T01:00:28.759Z,0
2016-08-12T01:01:28.769Z,0
2016-08-12T01:02:28.792Z,0
2016-08-12T01:03:28.834Z,0
2016-08-12T01:04:28.837Z,0
2016-08-12T01:05:28.865Z,0
2016-08-12T01:06:28.892Z,0
2016-08-12T01:07:28.911Z,0
2016-08-12T01:08:28.931Z,0
2016-08-12T01:09:28.957Z,0
2016-08-12T01:10:28.983Z,0
2016-08-12T01:11:30.431Z,0
2016-08-12T01:12:29.029Z,0
2016-08-12T01:13:29.768Z,0
2016-08-12T01:14:29.099Z,0
2016-08-12T01:15:29.111Z,0
2016-08-12T01:16:29.834Z,0
2016-08-12T01:17:29.153Z,0
2016-08-12T01:18:29.170Z,0
2016-08-12T01:19:30.645Z,0
2016-08-12T01:20:29.223Z,0
2016-08-12T01:21:29.244Z,0
2016-08-12T01:22:29.265Z,0
2016-08-12T01:23:29.290Z,0
2016-08-12T01:24:30.028Z,0
2016-08-12T01:25:30.760Z,0
2016-08-12T01:26:30.781Z,0
2016-08-12T01:27:29.387Z,0
2016-08-12T01:28:30.145Z,0
2016-08-12T01:29:29.435Z,0
2016-08-12T01:30:29.457Z,0
2016-08-12T01:31:30.205Z,0
2016-08-12T01:32:30.923Z,0
2016-08-12T01:34:30.262Z,0
2016-08-12T01:35:29.585Z,0
2016-08-12T01:36:30.307Z,0
2016-08-12T01:37:31.059Z,0
2016-08-12T01:38:30.356Z,0
2016-08-12T01:39:29.689Z,0
2016-08-12T01:40:29.695Z,0
2016-08-12T01:41:29.714Z,0
2016-08-12T01:42:29.739Z,0
2016-08-12T01:43:30.473Z,0
2016-08-12T01:44:29.802Z,0
2016-08-12T01:45:30.541Z,0
2016-08-12T01:46:29.834Z,0
2016-08-12T01:47:30.567Z,0
2016-08-12T01:49:29.910Z,0
2016-08-12T01:50:29.933Z,0
2016-08-12T01:51:29.966Z,0
2016-08-12T01:52:30.683Z,0
2016-08-12T01:53:30.002Z,0
2016-08-12T01:54:30.733Z,0
2016-08-12T01:55:30.060Z,0
2016-08-12T01:56:30.078Z,0
2016-08-12T01:57:30.096Z,0
2016-08-12T01:58:30.825Z,0
2016-08-12T01:59:30.140Z,0
2016-08-12T02:00:30.163Z,0
2016-08-12T02:01:30.904Z,0
2016-08-12T02:02:30.921Z,0
2016-08-12T02:04:30.264Z,0
2016-08-12T02:05:30.280Z,0
2016-08-12T02:06:30.304Z,0
2016-08-12T02:07:30.341Z,0
2016-08-12T02:08:30.376Z,0
2016-08-12T02:09:31.813Z,0
2016-08-12T02:10:30.404Z,0
2016-08-12T02:11:30.424Z,0
2016-08-12T02:12:30.456Z,0
2016-08-12T02:13:30.474Z,0
2016-08-12T02:14:30.501Z,0
2016-08-12T02:15:30.517Z,0
2016-08-12T02:16:31.259Z,0
2016-08-12T02:17:30.601Z,0
2016-08-12T02:19:30.613Z,0
2016-08-12T02:20:30.642Z,0
2016-08-12T02:21:32.077Z,0
2016-08-12T02:22:30.692Z,0
2016-08-12T02:23:31.421Z,0
2016-08-12T02:24:30.742Z,0
2016-08-12T02:25:31.465Z,0
2016-08-12T02:26:31.484Z,0
2016-08-12T02:27:30.800Z,0
2016-08-12T02:28:30.834Z,0
2016-08-12T02:29:30.851Z,0
2016-08-12T02:30:30.873Z,0
2016-08-12T02:31:30.896Z,0
2016-08-12T02:32:30.921Z,0
2016-08-12T02:34:30.965Z,0
2016-08-12T02:35:30.991Z,0
2016-08-12T02:36:31.012Z,0
2016-08-12T02:37:31.745Z,0
2016-08-12T02:38:31.784Z,0
2016-08-12T02:39:31.815Z,0
2016-08-12T02:40:31.111Z,0
2016-08-12T02:41:31.131Z,0
2016-08-12T02:42:31.161Z,0
2016-08-12T02:43:31.172Z,0
2016-08-12T02:44:31.903Z,0
2016-08-12T02:45:32.640Z,0
2016-08-12T02:46:31.256Z,0
2016-08-12T02:47:31.266Z,0
2016-08-12T02:49:31.340Z,0
2016-08-12T02:50:31.344Z,0
2016-08-12T02:51:31.356Z,0
2016-08-12T02:52:31.392Z,0
2016-08-12T02:53:31.410Z,0
2016-08-12T02:54:32.164Z,0
2016-08-12T02:55:31.458Z,0
2016-08-12T02:56:31.499Z,0
2016-08-12T02:57:31.505Z,0
2016-08-12T02:58:31.523Z,0
2016-08-12T02:59:31.562Z,0
2016-08-12T03:00:32.284Z,0
2016-08-12T03:01:31.593Z,0
2016-08-12T03:02:32.330Z,0
2016-08-12T03:04:31.694Z,0
2016-08-12T03:05:31.707Z,0
2016-08-12T03:06:31.727Z,0
2016-08-12T03:07:31.734Z,0
2016-08-12T03:08:33.183Z,0
2016-08-12T03:09:32.516Z,0
2016-08-12T03:10:32.602Z,0
2016-08-12T03:11:31.833Z,0
2016-08-12T03:12:31.850Z,0
2016-08-12T03:13:32.586Z,0
2016-08-12T03:14:32.601Z,0
2016-08-12T03:15:32.629Z,0
2016-08-12T03:16:32.660Z,0
2016-08-12T03:17:32.681Z,0
2016-08-12T03:18:31.988Z,0
2016-08-12T03:19:32.028Z,0
2016-08-12T03:20:32.050Z,0
2016-08-12T03:21:32.771Z,0
2016-08-12T03:22:32.080Z,0
2016-08-12T03:23:32.829Z,0
2016-08-12T03:24:32.128Z,0
2016-08-12T03:25:32.167Z,0
2016-08-12T03:26:32.191Z,0
2016-08-12T03:27:33.630Z,0
2016-08-12T03:28:32.221Z,0
2016-08-12T03:29:32.243Z,0
2016-08-12T03:30:32.263Z,0
2016-08-12T03:31:32.306Z,0
2016-08-12T03:32:32.307Z,0
2016-08-12T03:34:32.363Z,0
2016-08-12T03:35:33.089Z,0
2016-08-12T03:36:32.423Z,0
2016-08-12T03:37:33.901Z,0
2016-08-12T03:38:32.447Z,0
2016-08-12T03:39:32.468Z,0
2016-08-12T03:40:32.500Z,0
2016-08-12T03:41:32.516Z,0
2016-08-12T03:42:32.543Z,0
2016-08-12T03:43:33.267Z,0
2016-08-12T03:44:32.783Z,0
2016-08-12T03:45:32.604Z,0
2016-08-12T03:46:33.334Z,0
2016-08-12T03:47:34.100Z,0
2016-08-12T03:48:32.676Z,0
2016-08-12T03:49:32.698Z,0
2016-08-12T03:50:32.718Z,0
2016-08-12T03:51:33.451Z,0
2016-08-12T03:52:32.769Z,0
2016-08-12T03:53:32.788Z,0
2016-08-12T03:54:32.811Z,0
2016-08-12T03:55:32.834Z,0
2016-08-12T03:56:32.857Z,0
2016-08-12T03:57:33.619Z,0
2016-08-12T03:58:32.900Z,0
2016-08-12T03:59:32.927Z,0
2016-08-12T04:00:32.945Z,0
2016-08-12T04:01:32.971Z,0
2016-08-12T04:02:32.993Z,0
2016-08-12T04:03:33.726Z,0
2016-08-12T04:04:33.037Z,0
2016-08-12T04:05:33.062Z,0
2016-08-12T04:06:33.088Z,0
2016-08-12T04:07:33.811Z,0
2016-08-12T04:08:33.129Z,0
2016-08-12T04:09:33.158Z,0
2016-08-12T04:10:33.178Z,0
2016-08-12T04:11:33.197Z,0
2016-08-12T04:12:33.238Z,0
2016-08-12T04:13:33.242Z,0
2016-08-12T04:14:33.267Z,0
2016-08-12T04:15:33.286Z,0
2016-08-12T04:16:33.323Z,0
2016-08-12T04:17:34.043Z,0
2016-08-12T04:18:33.356Z,4
2016-08-12T04:19:33.377Z,0
2016-08-12T04:20:33.405Z,0
2016-08-12T04:21:34.132Z,0
2016-08-12T04:22:33.446Z,0
2016-08-12T04:23:34.185Z,0
2016-08-12T04:24:33.493Z,4
2016-08-12T04:25:33.513Z,0
2016-08-12T04:26:33.534Z,0
2016-08-12T04:27:33.563Z,0
2016-08-12T04:28:33.577Z,4
2016-08-12T04:29:34.331Z,0
2016-08-12T04:30:34.340Z,0
2016-08-12T04:31:33.643Z,0
2016-08-12T04:32:34.379Z,0
2016-08-12T04:33:34.426Z,0
2016-08-12T04:34:33.729Z,0
2016-08-12T04:35:33.741Z,0
2016-08-12T04:36:33.765Z,0
2016-08-12T04:37:33.783Z,0
2016-08-12T04:38:34.512Z,0
2016-08-12T04:39:33.829Z,0
2016-08-12T04:40:34.561Z,4
2016-08-12T04:41:34.581Z,0
2016-08-12T04:42:33.893Z,0
2016-08-12T04:43:35.349Z,4
2016-08-12T04:44:33.956Z,4
2016-08-12T04:45:33.980Z,4
2016-08-12T04:46:33.997Z,0
2016-08-12T04:47:34.715Z,0
2016-08-12T04:48:34.048Z,0
2016-08-12T04:49:34.759Z,0
2016-08-12T04:50:34.099Z,0
2016-08-12T04:51:35.519Z,4
2016-08-12T04:52:34.120Z,4
2016-08-12T04:53:34.141Z,4
2016-08-12T04:54:34.166Z,0
2016-08-12T04:55:34.188Z,0
2016-08-12T04:56:34.210Z,0
2016-08-12T04:57:34.244Z,0
2016-08-12T04:58:34.260Z,4
2016-08-12T04:59:34.279Z,4
2016-08-12T05:00:35.014Z,0
2016-08-12T05:01:34.326Z,4
2016-08-12T05:02:35.058Z,0
2016-08-12T05:03:34.371Z,0
2016-08-12T05:04:34.392Z,0
2016-08-12T05:05:35.145Z,4
2016-08-12T05:06:34.445Z,4
2016-08-12T05:07:34.468Z,4
2016-08-12T05:08:35.202Z,0
2016-08-12T05:09:35.226Z,4
2016-08-12T05:10:34.531Z,4
2016-08-12T05:11:34.552Z,4
2016-08-12T05:12:35.302Z,0
2016-08-12T05:13:34.626Z,4
2016-08-12T05:14:34.625Z,0
2016-08-12T05:15:34.650Z,4
2016-08-12T05:16:34.668Z,4
2016-08-12T05:17:34.690Z,4
2016-08-12T05:18:34.719Z,4
2016-08-12T05:19:34.735Z,4
2016-08-12T05:20:34.754Z,4
2016-08-12T05:21:35.492Z,4
2016-08-12T05:22:34.818Z,4
2016-08-12T05:23:35.536Z,4
2016-08-12T05:24:34.855Z,4
2016-08-12T05:25:34.877Z,4
2016-08-12T05:26:34.900Z,4
2016-08-12T05:27:34.921Z,4
2016-08-12T05:28:35.656Z,4
2016-08-12T05:29:35.676Z,4
2016-08-12T05:30:35.703Z,4
2016-08-12T05:31:35.009Z,8
2016-08-12T05:32:35.750Z,4
2016-08-12T05:33:35.056Z,4
2016-08-12T05:34:35.793Z,8
2016-08-12T05:35:35.103Z,4
2016-08-12T05:36:35.127Z,4
2016-08-12T05:37:35.169Z,4
2016-08-12T05:38:35.890Z,4
2016-08-12T05:39:35.199Z,4
2016-08-12T05:40:35.213Z,4
2016-08-12T05:41:35.239Z,8
2016-08-12T05:42:35.270Z,4
2016-08-12T05:43:35.994Z,4
2016-08-12T05:44:36.027Z,4
2016-08-12T05:45:35.335Z,4
2016-08-12T05:46:35.354Z,8
2016-08-12T05:47:36.093Z,4
2016-08-12T05:48:35.399Z,4
2016-08-12T05:49:35.433Z,4
2016-08-12T05:50:35.446Z,4
2016-08-12T05:51:35.471Z,8
2016-08-12T05:52:35.495Z,4
2016-08-12T05:53:36.265Z,8
2016-08-12T05:54:36.246Z,4
2016-08-12T05:55:35.570Z,8
2016-08-12T05:56:35.586Z,8
2016-08-12T05:57:35.605Z,8
2016-08-12T05:58:35.628Z,8
2016-08-12T05:59:35.647Z,12
2016-08-12T06:00:35.675Z,12
2016-08-12T06:01:35.703Z,8
2016-08-12T06:02:35.716Z,8
2016-08-12T06:03:35.741Z,8
2016-08-12T06:04:36.480Z,12
2016-08-12T06:05:35.789Z,12
2016-08-12T06:06:35.820Z,8
2016-08-12T06:07:35.854Z,12
2016-08-12T06:08:35.879Z,8
2016-08-12T06:09:35.889Z,12
2016-08-12T06:10:35.909Z,12
2016-08-12T06:11:35.929Z,12
2016-08-12T06:12:35.962Z,12
2016-08-12T06:13:35.973Z,12
2016-08-12T06:14:36.048Z,12
2016-08-12T06:15:36.035Z,8
2016-08-12T06:16:36.765Z,12
2016-08-12T06:17:36.774Z,12
2016-08-12T06:18:36.794Z,12
2016-08-12T06:19:37.530Z,12
2016-08-12T06:20:36.860Z,12
2016-08-12T06:21:36.152Z,16
2016-08-12T06:22:36.180Z,16
2016-08-12T06:23:36.199Z,12
2016-08-12T06:24:36.229Z,12
2016-08-12T06:25:36.265Z,16
2016-08-12T06:26:36.285Z,16
2016-08-12T06:27:36.293Z,16
2016-08-12T06:28:36.313Z,16
2016-08-12T06:29:37.053Z,16
2016-08-12T06:30:36.366Z,16
2016-08-12T06:31:36.393Z,16
2016-08-12T06:32:36.431Z,12
2016-08-12T06:33:37.137Z,16
2016-08-12T06:34:36.453Z,16
2016-08-12T06:35:36.483Z,12
2016-08-12T06:36:36.508Z,16
2016-08-12T06:37:36.522Z,16
2016-08-12T06:38:37.271Z,16
2016-08-12T06:39:37.296Z,12
2016-08-12T06:40:37.313Z,12
2016-08-12T06:41:36.626Z,12
2016-08-12T06:42:37.345Z,12
2016-08-12T06:43:36.659Z,16
2016-08-12T06:44:37.408Z,12
2016-08-12T06:45:36.706Z,12
2016-08-12T06:46:37.459Z,12
2016-08-12T06:47:36.753Z,12
2016-08-12T06:48:36.781Z,12
2016-08-12T06:49:36.816Z,12
2016-08-12T06:50:36.816Z,12
2016-08-12T06:51:37.750Z,12
2016-08-12T06:52:36.863Z,12
2016-08-12T06:53:36.891Z,16
2016-08-12T06:54:36.912Z,12
2016-08-12T06:55:36.942Z,12
2016-08-12T06:56:36.961Z,12
2016-08-12T06:57:37.690Z,12
2016-08-12T06:58:37.019Z,12
2016-08-12T06:59:37.028Z,16
2016-08-12T07:00:37.052Z,12
2016-08-12T07:01:37.084Z,12
2016-08-12T07:02:37.093Z,16
2016-08-12T07:03:37.123Z,16
2016-08-12T07:04:37.851Z,16
2016-08-12T07:05:37.870Z,16
2016-08-12T07:06:37.905Z,16
2016-08-12T07:07:37.205Z,16
2016-08-12T07:08:37.940Z,16
2016-08-12T07:09:37.252Z,16
2016-08-12T07:10:37.274Z,16
2016-08-12T07:11:37.322Z,16
2016-08-12T07:12:37.342Z,16
2016-08-12T07:13:37.350Z,20
2016-08-12T07:14:37.367Z,16
2016-08-12T07:15:37.394Z,20
2016-08-12T07:16:38.122Z,20
2016-08-12T07:17:38.176Z,20
2016-08-12T07:18:37.467Z,20
2016-08-12T07:19:37.492Z,16
2016-08-12T07:20:38.214Z,16
2016-08-12T07:21:37.525Z,20
2016-08-12T07:22:37.550Z,20
2016-08-12T07:23:37.574Z,20
2016-08-12T07:24:38.323Z,20
2016-08-12T07:25:37.617Z,20
2016-08-12T07:26:38.358Z,20
2016-08-12T07:27:37.698Z,20
2016-08-12T07:28:37.687Z,20
2016-08-12T07:29:37.709Z,20
2016-08-12T07:30:37.738Z,20
2016-08-12T07:31:37.757Z,24
2016-08-12T07:32:38.510Z,24
2016-08-12T07:33:37.809Z,24
2016-08-12T07:34:37.841Z,28
2016-08-12T07:35:37.855Z,32
2016-08-12T07:36:37.867Z,32
2016-08-12T07:37:39.320Z,28
2016-08-12T07:38:37.916Z,32
2016-08-12T07:39:37.938Z,32
2016-08-12T07:40:37.962Z,36
2016-08-12T07:41:38.698Z,36
2016-08-12T07:42:38.718Z,36
2016-08-12T07:43:38.739Z,36
2016-08-12T07:44:38.059Z,36
2016-08-12T07:45:38.787Z,32
2016-08-12T07:46:38.105Z,24
2016-08-12T07:47:38.124Z,24
2016-08-12T07:48:38.144Z,24
2016-08-12T07:49:38.210Z,20
2016-08-12T07:50:38.939Z,20
2016-08-12T07:51:38.215Z,24
2016-08-12T07:52:38.237Z,24
2016-08-12T07:53:38.262Z,24
2016-08-12T07:54:38.992Z,28
2016-08-12T07:55:38.304Z,24
2016-08-12T07:56:38.332Z,24
2016-08-12T07:57:39.060Z,24
2016-08-12T07:58:38.372Z,24
2016-08-12T07:59:38.394Z,24
2016-08-12T08:00:38.421Z,24
2016-08-12T08:01:39.147Z,20
2016-08-12T08:02:38.466Z,24
2016-08-12T08:03:39.200Z,20
2016-08-12T08:05:38.540Z,16
2016-08-12T08:06:38.557Z,20
2016-08-12T08:07:39.288Z,20
2016-08-12T08:08:38.600Z,20
2016-08-12T08:09:38.627Z,20
2016-08-12T08:10:39.373Z,20
2016-08-12T08:11:38.671Z,20
2016-08-12T08:12:38.716Z,24
2016-08-12T08:13:38.719Z,24
2016-08-12T08:14:40.160Z,24
2016-08-12T08:15:39.471Z,24
2016-08-12T08:16:38.788Z,24
2016-08-12T08:17:38.811Z,20
2016-08-12T08:18:38.833Z,24
2016-08-12T08:20:38.899Z,20
2016-08-12T08:21:38.910Z,20
2016-08-12T08:22:38.946Z,20
2016-08-12T08:23:39.657Z,16
2016-08-12T08:24:38.971Z,20
2016-08-12T08:25:39.000Z,20
2016-08-12T08:26:39.038Z,20
2016-08-12T08:27:39.040Z,24
2016-08-12T08:28:39.061Z,24
2016-08-12T08:29:39.094Z,24
2016-08-12T08:30:39.106Z,20
2016-08-12T08:31:39.839Z,24
2016-08-12T08:32:39.154Z,24
2016-08-12T08:33:39.888Z,28
2016-08-12T08:35:39.242Z,24
2016-08-12T08:36:39.249Z,24
2016-08-12T08:37:39.276Z,24
2016-08-12T08:38:40.020Z,24
2016-08-12T08:39:39.321Z,24
2016-08-12T08:40:39.339Z,24
2016-08-12T08:41:39.362Z,24
2016-08-12T08:42:39.383Z,24
2016-08-12T08:43:40.127Z,28
2016-08-12T08:44:39.434Z,28
2016-08-12T08:45:39.453Z,28
2016-08-12T08:46:39.479Z,36
2016-08-12T08:47:39.508Z,36
2016-08-12T08:48:39.533Z,36
2016-08-12T08:50:40.280Z,28
2016-08-12T08:51:40.343Z,32
2016-08-12T08:52:39.626Z,32
2016-08-12T08:53:39.646Z,32
2016-08-12T08:54:39.680Z,36
2016-08-12T08:55:39.690Z,36
2016-08-12T08:56:39.712Z,32
2016-08-12T08:57:39.737Z,36
2016-08-12T08:58:39.781Z,32
2016-08-12T08:59:39.788Z,36
2016-08-12T09:00:39.812Z,36
2016-08-12T09:01:39.835Z,32
2016-08-12T09:02:39.855Z,32
2016-08-12T09:03:41.311Z,36
2016-08-12T09:04:40.623Z,48
2016-08-12T09:05:39.923Z,52
2016-08-12T09:06:39.957Z,56
2016-08-12T09:07:39.984Z,52
2016-08-12T09:08:40.004Z,52
2016-08-12T09:09:40.016Z,48
2016-08-12T09:10:40.043Z,48
2016-08-12T09:11:40.773Z,48
2016-08-12T09:12:40.794Z,44
2016-08-12T09:13:40.108Z,52
2016-08-12T09:14:40.136Z,44
2016-08-12T09:15:40.871Z,48
2016-08-12T09:16:40.180Z,52
2016-08-12T09:17:40.205Z,68
2016-08-12T09:18:40.230Z,68
2016-08-12T09:19:40.266Z,60
2016-08-12T09:20:40.277Z,56
2016-08-12T09:21:40.296Z,48
2016-08-12T09:22:41.027Z,44
2016-08-12T09:23:40.347Z,52
2016-08-12T09:24:40.367Z,56
2016-08-12T09:25:41.099Z,48
2016-08-12T09:26:40.411Z,44
2016-08-12T09:27:40.433Z,48
2016-08-12T09:28:40.462Z,48
2016-08-12T09:29:40.484Z,52
2016-08-12T09:30:40.506Z,48
2016-08-12T09:31:40.529Z,48
2016-08-12T09:32:40.552Z,56
2016-08-12T09:33:40.572Z,68
2016-08-12T09:34:40.599Z,76
2016-08-12T09:35:40.636Z,68
2016-08-12T09:36:41.380Z,48
2016-08-12T09:37:41.402Z,48
2016-08-12T09:38:40.699Z,44
2016-08-12T09:39:40.722Z,48
2016-08-12T09:40:41.448Z,44
2016-08-12T09:41:40.785Z,48
2016-08-12T09:42:41.497Z,44
2016-08-12T09:43:41.523Z,44
2016-08-12T09:44:40.848Z,44
2016-08-12T09:45:41.573Z,48
2016-08-12T09:46:40.900Z,52
2016-08-12T09:47:41.614Z,48
2016-08-12T09:48:40.959Z,60
2016-08-12T09:49:40.953Z,56
2016-08-12T09:50:40.976Z,56
2016-08-12T09:51:40.997Z,56
2016-08-12T09:52:41.754Z,48
2016-08-12T09:53:41.775Z,56
2016-08-12T09:54:41.075Z,52
2016-08-12T09:55:41.802Z,48
2016-08-12T09:56:41.113Z,48
2016-08-12T09:57:41.140Z,44
2016-08-12T09:58:41.164Z,52
2016-08-12T09:59:42.607Z,56
2016-08-12T10:00:41.212Z,56
2016-08-12T10:01:41.239Z,52
2016-08-12T10:02:41.964Z,56
2016-08-12T10:03:41.295Z,48
2016-08-12T10:04:42.012Z,52
2016-08-12T10:05:42.044Z,44
2016-08-12T10:06:41.351Z,44
2016-08-12T10:07:41.379Z,44
2016-08-12T10:08:41.403Z,36
2016-08-12T10:09:42.146Z,36
2016-08-12T10:10:42.162Z,44
2016-08-12T10:11:41.470Z,40
2016-08-12T10:12:42.208Z,44
2016-08-12T10:13:56.420Z,36
2016-08-12T10:14:41.539Z,36
2016-08-12T10:15:41.575Z,44
2016-08-12T10:16:41.603Z,48
2016-08-12T10:17:41.615Z,64
2016-08-12T10:18:41.650Z,72
2016-08-12T10:19:42.378Z,80
2016-08-12T10:20:42.401Z,72
2016-08-12T10:21:42.424Z,64
2016-08-12T10:22:41.737Z,76
2016-08-12T10:23:41.760Z,80
2016-08-12T10:24:41.782Z,80
2016-08-12T10:25:42.517Z,76
2016-08-12T10:26:41.853Z,72
2016-08-12T10:27:42.563Z,68
2016-08-12T10:28:41.878Z,60
2016-08-12T10:29:41.912Z,60
2016-08-12T10:30:41.924Z,64
2016-08-12T10:31:41.977Z,68
2016-08-12T10:32:42.709Z,80
2016-08-12T10:33:42.000Z,80
2016-08-12T10:34:42.022Z,100
2016-08-12T10:35:42.052Z,88
2016-08-12T10:36:42.067Z,68
2016-08-12T10:37:42.803Z,56
2016-08-12T10:38:42.227Z,60
2016-08-12T10:39:42.141Z,64
2016-08-12T10:40:42.166Z,76
2016-08-12T10:41:42.902Z,88
2016-08-12T10:42:42.228Z,68
2016-08-12T10:43:42.234Z,72
2016-08-12T10:44:42.259Z,68
2016-08-12T10:45:42.292Z,68
2016-08-12T10:46:43.032Z,56
2016-08-12T10:47:43.050Z,52
2016-08-12T10:48:42.362Z,44
2016-08-12T10:49:42.385Z,44
2016-08-12T10:50:43.114Z,40
2016-08-12T10:51:43.140Z,44
2016-08-12T10:52:43.162Z,44
2016-08-12T10:53:42.478Z,40
2016-08-12T10:54:42.498Z,40
2016-08-12T10:55:42.540Z,40
2016-08-12T10:56:42.550Z,36
2016-08-12T10:57:42.584Z,40
2016-08-12T10:58:42.607Z,32
2016-08-12T10:59:42.622Z,32
2016-08-12T11:00:42.657Z,32
2016-08-12T11:01:43.387Z,32
2016-08-12T11:02:42.699Z,32
2016-08-12T11:03:42.718Z,36
2016-08-12T11:04:42.741Z,36
2016-08-12T11:05:42.794Z,40
2016-08-12T11:06:42.791Z,36
2016-08-12T11:07:42.819Z,40
2016-08-12T11:08:42.849Z,40
2016-08-12T11:09:42.864Z,40
2016-08-12T11:10:43.617Z,40
2016-08-12T11:11:43.641Z,44
2016-08-12T11:12:42.951Z,48
2016-08-12T11:13:43.670Z,44
2016-08-12T11:14:43.696Z,44
2016-08-12T11:15:43.719Z,48
2016-08-12T11:16:43.053Z,52
2016-08-12T11:17:43.942Z,52
2016-08-12T11:18:43.079Z,52
2016-08-12T11:19:43.103Z,60
2016-08-12T11:20:43.842Z,72
2016-08-12T11:21:43.160Z,88
2016-08-12T11:22:43.894Z,88
2016-08-12T11:23:43.207Z,72
2016-08-12T11:24:43.224Z,60
2016-08-12T11:25:43.974Z,56
2016-08-12T11:26:43.273Z,56
2016-08-12T11:27:44.008Z,48
2016-08-12T11:28:44.032Z,48
2016-08-12T11:29:44.063Z,52
2016-08-12T11:30:43.373Z,44
2016-08-12T11:31:43.396Z,36
2016-08-12T11:32:43.421Z,40
2016-08-12T11:33:43.457Z,40
2016-08-12T11:34:43.478Z,40
2016-08-12T11:35:44.207Z,44
2016-08-12T11:36:44.225Z,44
2016-08-12T11:37:44.255Z,36
2016-08-12T11:38:43.575Z,44
2016-08-12T11:39:43.591Z,56
2016-08-12T11:40:43.614Z,44
2016-08-12T11:41:43.637Z,40
2016-08-12T11:42:44.374Z,40
2016-08-12T11:43:44.407Z,32
2016-08-12T11:44:44.421Z,28
2016-08-12T11:45:43.734Z,40
2016-08-12T11:46:43.763Z,36
2016-08-12T11:47:44.514Z,36
2016-08-12T11:48:43.815Z,36
2016-08-12T11:49:44.543Z,44
2016-08-12T11:50:43.855Z,36
2016-08-12T11:51:43.883Z,40
2016-08-12T11:52:43.906Z,44
2016-08-12T11:53:44.641Z,52
2016-08-12T11:54:43.953Z,48
2016-08-12T11:55:43.979Z,52
2016-08-12T11:56:44.002Z,48
2016-08-12T11:57:44.737Z,52
2016-08-12T11:58:44.062Z,48
2016-08-12T11:59:44.078Z,48
2016-08-12T12:00:44.109Z,52
2016-08-12T12:01:44.129Z,48
2016-08-12T12:02:44.154Z,44
2016-08-12T12:03:44.182Z,48
2016-08-12T12:04:44.202Z,52
2016-08-12T12:05:44.230Z,52
2016-08-12T12:06:44.957Z,52
2016-08-12T12:07:44.290Z,48
2016-08-12T12:08:44.310Z,48
2016-08-12T12:09:44.321Z,44
2016-08-12T12:10:45.055Z,40
2016-08-12T12:11:44.369Z,44
2016-08-12T12:12:44.398Z,52
2016-08-12T12:13:44.422Z,48
2016-08-12T12:14:44.455Z,48
2016-08-12T12:15:45.190Z,40
2016-08-12T12:16:44.497Z,44
2016-08-12T12:17:45.226Z,48
2016-08-12T12:18:45.964Z,52
2016-08-12T12:19:44.577Z,60
2016-08-12T12:20:44.618Z,48
2016-08-12T12:21:45.350Z,44
2016-08-12T12:22:45.356Z,40
2016-08-12T12:23:44.663Z,44
2016-08-12T12:24:44.696Z,40
2016-08-12T12:25:44.713Z,36
2016-08-12T12:26:44.737Z,36
2016-08-12T12:27:44.765Z,40
2016-08-12T12:28:45.517Z,44
2016-08-12T12:29:44.810Z,48
2016-08-12T12:30:44.845Z,48
2016-08-12T12:31:45.575Z,56
2016-08-12T12:32:45.593Z,52
2016-08-12T12:33:44.910Z,48
2016-08-12T12:34:44.937Z,40
2016-08-12T12:35:44.961Z,48
2016-08-12T12:36:48.479Z,48
2016-08-12T12:37:49.227Z,44
2016-08-12T12:38:47.493Z,44
2016-08-12T12:39:45.086Z,44
2016-08-12T12:40:45.082Z,40
2016-08-12T12:41:45.108Z,44
2016-08-12T12:42:45.140Z,44
2016-08-12T12:43:45.155Z,44
2016-08-12T12:44:45.204Z,44
2016-08-12T12:45:45.216Z,48
2016-08-12T12:46:45.229Z,44
2016-08-12T12:47:45.259Z,44
2016-08-12T12:48:45.295Z,48
2016-08-12T12:49:45.304Z,52
2016-08-12T12:50:45.330Z,56
2016-08-12T12:51:45.365Z,60
2016-08-12T12:52:46.095Z,60
2016-08-12T12:53:45.408Z,52
2016-08-12T12:54:45.451Z,48
2016-08-12T12:55:46.166Z,48
2016-08-12T12:56:46.195Z,44
2016-08-12T12:57:45.504Z,44
2016-08-12T12:58:45.528Z,40
2016-08-12T12:59:45.561Z,40
2016-08-12T13:00:46.295Z,44
2016-08-12T13:01:45.601Z,40
2016-08-12T13:02:46.334Z,40
2016-08-12T13:03:45.681Z,44
2016-08-12T13:04:45.678Z,40
2016-08-12T13:05:46.409Z,44
2016-08-12T13:06:45.738Z,40
2016-08-12T13:07:46.474Z,36
2016-08-12T13:08:46.501Z,36
2016-08-12T13:09:45.815Z,40
2016-08-12T13:10:45.825Z,40
2016-08-12T13:11:47.280Z,36
2016-08-12T13:12:45.876Z,36
2016-08-12T13:13:46.632Z,36
2016-08-12T13:14:45.925Z,36
2016-08-12T13:15:46.013Z,44
2016-08-12T13:16:46.717Z,40
2016-08-12T13:17:46.712Z,40
2016-08-12T13:18:46.738Z,44
2016-08-12T13:19:46.755Z,48
2016-08-12T13:20:46.072Z,48
2016-08-12T13:21:46.104Z,48
2016-08-12T13:22:46.120Z,48
2016-08-12T13:23:46.148Z,48
2016-08-12T13:24:46.183Z,44
2016-08-12T13:25:46.908Z,40
2016-08-12T13:26:46.236Z,32
2016-08-12T13:27:46.958Z,36
2016-08-12T13:28:46.278Z,36
2016-08-12T13:29:47.008Z,28
2016-08-12T13:30:46.325Z,32
2016-08-12T13:31:47.070Z,36
2016-08-12T13:32:47.092Z,36
2016-08-12T13:33:46.399Z,36
2016-08-12T13:34:46.430Z,36
2016-08-12T13:35:46.457Z,40
2016-08-12T13:36:47.183Z,40
2016-08-12T13:37:46.498Z,40
2016-08-12T13:38:46.523Z,40
2016-08-12T13:39:46.574Z,44
2016-08-12T13:40:46.586Z,36
2016-08-12T13:41:46.603Z,40
2016-08-12T13:42:46.624Z,36
2016-08-12T13:43:46.654Z,36
2016-08-12T13:44:47.384Z,36
2016-08-12T13:45:46.699Z,40
2016-08-12T13:46:46.722Z,44
2016-08-12T13:47:46.745Z,52
2016-08-12T13:48:46.779Z,60
2016-08-12T13:49:46.806Z,68
2016-08-12T13:50:46.826Z,72
2016-08-12T13:51:47.563Z,68
2016-08-12T13:52:46.877Z,64
2016-08-12T13:53:46.913Z,52
2016-08-12T13:54:46.928Z,52
2016-08-12T13:55:47.153Z,48
2016-08-12T13:56:47.684Z,36
2016-08-12T13:57:47.001Z,36
2016-08-12T13:58:47.045Z,40
2016-08-12T13:59:47.052Z,40
2016-08-12T14:00:47.078Z,36
2016-08-12T14:01:47.101Z,36
2016-08-12T14:02:48.557Z,48
2016-08-12T14:03:47.868Z,48
2016-08-12T14:04:47.887Z,52
2016-08-12T14:05:47.216Z,48
2016-08-12T14:06:47.234Z,52
2016-08-12T14:07:47.261Z,52
2016-08-12T14:08:47.298Z,56
2016-08-12T14:09:47.297Z,60
2016-08-12T14:10:47.348Z,56
2016-08-12T14:11:48.085Z,60
2016-08-12T14:12:48.090Z,56
2016-08-12T14:13:47.408Z,60
2016-08-12T14:14:48.150Z,64
2016-08-12T14:15:48.162Z,72
2016-08-12T14:16:47.482Z,72
2016-08-12T14:17:47.504Z,76
2016-08-12T14:18:47.536Z,84
2016-08-12T14:19:47.574Z,76
2016-08-12T14:20:47.601Z,68
2016-08-12T14:21:47.606Z,68
2016-08-12T14:22:47.635Z,72
2016-08-12T14:23:47.662Z,72
2016-08-12T14:24:47.684Z,72
2016-08-12T14:25:49.824Z,68
2016-08-12T14:26:47.751Z,76
2016-08-12T14:27:48.480Z,80
2016-08-12T14:28:48.514Z,80
2016-08-12T14:29:47.821Z,80
2016-08-12T14:30:47.838Z,68
2016-08-12T14:31:47.863Z,64
2016-08-12T14:32:47.884Z,64
2016-08-12T14:33:47.910Z,60
2016-08-12T14:34:47.939Z,56
2016-08-12T14:35:48.687Z,52
2016-08-12T14:36:48.699Z,48
2016-08-12T14:37:48.036Z,44
2016-08-12T14:38:48.036Z,40
2016-08-12T14:39:48.061Z,40
2016-08-12T14:40:48.094Z,44